Pilote(s) en ligne...
 F-PIER (Pierrot)  Vol    SEII/SEGS
 F-GMAN (Gilles)  Vol    SEII/SEGS
 F-DOM (Dominique)  Vol    SEGS/SEGS
 F-PARJ (PHILIPPE)  Vol    SEII/SEGS

Compagnie Fsx-France ! Un nouveau look pour votre VA, par : Julien & Co

 METAR ET TAF INFORMATION
METAR FOR LHBP
ADDS - METARS form results

(1917 UTC 26 October 2021)
Data provider http://aviationweather.gov/metar/data/
 
METAR text: LHBP 261900Z 34003KT CAVOK 03/00 Q1025 NOSIG
Conditions at: LHBP (BUDAPEST/FERIHEG, HU) observed 1900 UTC 26 October 2021
Temperature: 3.0°C (37°F)
Dewpoint: 0.0°C (32°F) [RH = 81%]
Pressure (altimeter): 30.27 inches Hg (1025.0 mb)
Winds: from the NNW (340 degrees) at 3 MPH (3 knots; 1.5 m/s)
Visibility: 6 or more miles (10+ km)
Ceiling: ceiling and visibility are OK
Clouds: unknown
Weather: no significant weather observed at this time

METAR text: LHBP 261830Z VRB02KT CAVOK 03/M00 Q1024 NOSIG
Conditions at: LHBP (BUDAPEST/FERIHEG, HU) observed 1830 UTC 26 October 2021
Temperature: 3.0°C (37°F)
Dewpoint: 0.0°C (32°F) [RH = 81%]
Pressure (altimeter): 30.24 inches Hg (1024.0 mb)
Winds: variable direction winds at 2 MPH (2 knots; 1.0 m/s)
Visibility: 6 or more miles (10+ km)
Ceiling: ceiling and visibility are OK
Clouds: unknown
Weather: no significant weather observed at this time

Forecast for: LHBP (BUDAPEST/FERIHEG, HU)
Text: TAF LHBP 261715Z 2618/2718 VRB03KT CAVOK
Forecast period: 1800 UTC 26 October 2021 to 1800 UTC 27 October 2021
Forecast type: FROM: standard forecast or significant change
Winds: variable direction winds at 3 MPH (3 knots; 1.5 m/s)
Visibility: 6 or more miles (10+ km)
Ceiling: unknown
Clouds: missing
Weather: NSW  (no significant weather)

 AÉROPORT DE AÉROPORT

 INFORMATIONS DE PISTE
Piste 13L Longueur de la piste 3707 m = 12162 ft Largeur de la piste 45 m = 149 ft
Élévation de la piste 495 ft Seuil de la piste déplacés 0 ft Runway heading 132
Piste 31R Longueur de la piste 3707 m = 12162 ft Largeur de la piste 45 m = 149 ft
Élévation de la piste 417 ft Seuil de la piste déplacés 0 ft Runway heading 312
Piste 13R Longueur de la piste 3010 m = 9875 ft Largeur de la piste 45 m = 149 ft
Élévation de la piste 450 ft Seuil de la piste déplacés 0 ft Runway heading 132
Piste 31L Longueur de la piste 3010 m = 9875 ft Largeur de la piste 45 m = 149 ft
Élévation de la piste 450 ft Seuil de la piste déplacés 0 ft Runway heading 312
 AÉROPORT FRÉQUENCES
Type ACC Nom BUDAPEST A Féquence 129.7 MHZ
Type APP Nom DIRECTOR Féquence 119.5 MHZ
Type APRS Nom Apron Guid Féquence 122.45 MHZ
Type APRW Nom Apron Guid Féquence 131.55 MHZ
Type ATIS Nom ATIS Féquence 132.375 MHZ
Type CDC Nom Delivery Féquence 134.55 MHZ
Type GND Nom GND Féquence 121.9 MHZ
Type TWR Nom TWR Féquence 118.1 MHZ

 AIDES A LA NAVIGATION
Type VOR-DME Nom Budapest Féquence 117300 KHZ
Type VOR-DME Nom Monor Féquence 112500 KHZ
Type NDB Nom Monor Féquence 288 KHZ
Type VOR-DME Nom Tapiosap Féquence 115900 KHZ
Type NDB Nom Tapiosap Féquence 306 KHZ